createdAt,value
2022-09-28T00:01:19.237Z,97247.88
2022-09-28T00:03:46.820Z,97244.34
2022-09-28T00:06:15.761Z,97250.63
2022-09-28T00:08:42.391Z,97247.59
2022-09-28T00:11:12.844Z,97249.25
2022-09-28T00:13:40.290Z,97241.91
2022-09-28T00:16:09.427Z,97243.00
2022-09-28T00:18:36.186Z,97233.50
2022-09-28T00:21:04.662Z,97237.56
2022-09-28T00:23:31.350Z,97238.63
2022-09-28T00:26:02.772Z,97244.63
2022-09-28T00:28:29.667Z,97232.66
2022-09-28T00:30:56.503Z,97245.16
2022-09-28T00:33:23.063Z,97245.72
2022-09-28T00:35:57.375Z,97248.16
2022-09-28T00:38:27.327Z,97237.28
2022-09-28T00:40:55.530Z,97254.94
2022-09-28T00:43:23.311Z,97243.00
2022-09-28T00:46:02.220Z,97249.78
2022-09-28T00:48:33.355Z,97242.72
2022-09-28T00:51:02.190Z,97249.78
2022-09-28T00:53:32.041Z,97249.50
2022-09-28T00:56:09.140Z,97245.16
2022-09-28T00:58:40.098Z,97237.00
2022-09-28T01:01:06.737Z,97252.22
2022-09-28T01:03:33.848Z,97245.94
2022-09-28T01:06:03.313Z,97246.78
2022-09-28T01:08:31.762Z,97243.53
2022-09-28T01:10:59.120Z,97247.59
2022-09-28T01:13:27.174Z,97233.47
2022-09-28T01:16:01.953Z,97231.28
2022-09-28T01:18:39.223Z,97229.13
2022-09-28T01:21:16.417Z,97232.38
2022-09-28T01:24:12.754Z,97231.03
2022-09-28T01:26:49.304Z,97232.13
2022-09-28T01:29:44.653Z,97215.00
2022-09-28T01:32:32.686Z,97215.84
2022-09-28T01:35:14.965Z,97205.22
2022-09-28T01:38:10.341Z,97202.78
2022-09-28T01:40:37.502Z,97201.16
2022-09-28T01:43:07.394Z,97201.41
2022-09-28T01:45:41.450Z,97192.19
2022-09-28T01:48:11.019Z,97203.31
2022-09-28T01:50:40.295Z,97205.75
2022-09-28T01:53:12.793Z,97209.53
2022-09-28T01:55:45.648Z,97199.22
2022-09-28T01:58:15.616Z,97190.56
2022-09-28T02:00:45.391Z,97194.06
2022-09-28T02:03:19.418Z,97182.41
2022-09-28T02:06:00.296Z,97187.25
2022-09-28T02:08:32.255Z,97185.63
2022-09-28T02:11:08.263Z,97176.38
2022-09-28T02:13:40.740Z,97182.09
2022-09-28T02:16:18.927Z,97170.66
2022-09-28T02:18:46.001Z,97176.38
2022-09-28T02:21:28.335Z,97173.13
2022-09-28T02:24:10.849Z,97168.50
2022-09-28T02:26:41.191Z,97168.78
2022-09-28T02:29:08.262Z,97172.84
2022-09-28T02:31:35.475Z,97188.03
2022-09-28T02:34:02.101Z,97176.66
2022-09-28T02:36:29.097Z,97183.41
2022-09-28T02:38:57.241Z,97172.00
2022-09-28T02:41:35.962Z,97182.28
2022-09-28T02:44:35.300Z,97185.84
2022-09-28T02:47:55.104Z,97174.69
2022-09-28T02:50:50.185Z,97170.88
2022-09-28T02:53:55.104Z,97176.06
2022-09-28T02:56:52.870Z,97162.22
2022-09-28T02:59:40.341Z,97164.13
2022-09-28T03:02:32.470Z,97171.69
2022-09-28T03:05:19.865Z,97175.75
2022-09-28T03:08:00.498Z,97166.81
2022-09-28T03:10:36.191Z,97164.34
2022-09-28T03:13:03.683Z,97160.56
2022-09-28T03:15:32.818Z,97162.44
2022-09-28T03:18:00.531Z,97161.88
2022-09-28T03:20:28.823Z,97164.88
2022-09-28T03:23:20.105Z,97169.75
2022-09-28T03:25:42.370Z,97159.44
2022-09-28T03:28:08.906Z,97172.47
2022-09-28T03:30:39.248Z,97162.44
2022-09-28T03:33:06.936Z,97171.38
2022-09-28T03:35:33.766Z,97170.84
2022-09-28T03:38:00.307Z,97180.88
2022-09-28T03:40:29.548Z,97171.88
2022-09-28T03:42:56.238Z,97167.56
2022-09-28T03:45:22.823Z,97172.19
2022-09-28T03:47:51.126Z,97165.09
2022-09-28T03:50:18.891Z,97173.78
2022-09-28T03:52:45.546Z,97173.78
2022-09-28T03:55:12.167Z,97175.69
2022-09-28T03:57:38.711Z,97175.13
2022-09-28T04:00:06.179Z,97169.44
2022-09-28T04:02:40.479Z,97178.09
2022-09-28T04:05:07.540Z,97183.22
2022-09-28T04:07:34.167Z,97182.41
2022-09-28T04:10:01.030Z,97174.00
2022-09-28T04:12:27.621Z,97168.59
2022-09-28T04:14:54.185Z,97181.81
2022-09-28T04:17:20.727Z,97180.47
2022-09-28T04:19:48.166Z,97189.41
2022-09-28T04:22:25.148Z,97186.16
2022-09-28T04:24:51.694Z,97188.88
2022-09-28T04:27:36.718Z,97192.66
2022-09-28T04:30:06.997Z,97192.94
2022-09-28T04:32:34.711Z,97200.19
2022-09-28T04:35:01.602Z,97195.03
2022-09-28T04:37:30.825Z,97185.81
2022-09-28T04:39:57.550Z,97181.75
2022-09-28T04:42:24.065Z,97191.78
2022-09-28T04:44:51.278Z,97187.72
2022-09-28T04:47:17.835Z,97177.69
2022-09-28T04:50:03.138Z,97170.09
2022-09-28T04:52:32.618Z,97168.19
2022-09-28T04:54:59.207Z,97175.75
2022-09-28T04:57:26.287Z,97172.78
2022-09-28T04:59:57.400Z,97170.31
2022-09-28T05:02:24.627Z,97168.72
2022-09-28T05:05:14.000Z,97167.66
2022-09-28T05:08:00.951Z,97156.25
2022-09-28T05:10:27.654Z,97152.19
2022-09-28T05:12:54.174Z,97142.72
2022-09-28T05:15:20.730Z,97140.81
2022-09-28T05:17:48.277Z,97145.13
2022-09-28T05:20:28.819Z,97140.50
2022-09-28T05:23:05.138Z,97131.88
2022-09-28T05:25:31.916Z,97135.13
2022-09-28T05:28:12.550Z,97138.13
2022-09-28T05:31:11.470Z,97134.66
2022-09-28T05:33:57.620Z,97143.25
2022-09-28T05:36:27.890Z,97155.44
2022-09-28T05:38:54.504Z,97151.06
2022-09-28T05:41:21.141Z,97158.09
2022-09-28T05:43:47.682Z,97163.25
2022-09-28T05:46:14.606Z,97164.59
2022-09-28T05:48:41.731Z,97164.00
2022-09-28T05:51:10.090Z,97159.16
2022-09-28T05:53:36.652Z,97162.66
2022-09-28T05:56:04.176Z,97163.78
2022-09-28T05:58:32.616Z,97155.63
2022-09-28T06:00:59.687Z,97162.66
2022-09-28T06:03:29.414Z,97169.44
2022-09-28T06:05:56.042Z,97170.25
2022-09-28T06:08:23.858Z,97174.31
2022-09-28T06:11:01.890Z,97169.16
2022-09-28T06:13:29.023Z,97173.22
2022-09-28T06:15:55.624Z,97168.94
2022-09-28T06:18:24.334Z,97171.59
2022-09-28T06:21:10.907Z,97186.72
2022-09-28T06:23:46.884Z,97193.22
2022-09-28T06:26:16.561Z,97194.84
2022-09-28T06:28:44.544Z,97203.03
2022-09-28T06:31:15.766Z,97187.53
2022-09-28T06:33:51.909Z,97185.91
2022-09-28T06:36:19.711Z,97194.63
2022-09-28T06:38:46.671Z,97196.00
2022-09-28T06:41:14.650Z,97188.41
2022-09-28T06:43:42.354Z,97178.16
2022-09-28T06:46:13.084Z,97198.25
2022-09-28T06:48:40.389Z,97188.75
2022-09-28T06:51:09.542Z,97200.72
2022-09-28T06:53:44.660Z,97190.41
2022-09-28T06:56:22.378Z,97187.97
2022-09-28T06:58:49.279Z,97196.94
2022-09-28T07:01:15.889Z,97192.94
2022-09-28T07:03:55.528Z,97180.47
2022-09-28T07:06:48.495Z,97195.38
2022-09-28T07:09:51.253Z,97200.03
2022-09-28T07:12:50.835Z,97213.06
2022-09-28T07:15:29.660Z,97212.00
2022-09-28T07:18:02.975Z,97208.44
2022-09-28T07:20:46.539Z,97215.78
2022-09-28T07:23:19.779Z,97219.34
2022-09-28T07:26:08.110Z,97218.53
2022-09-28T07:29:04.916Z,97219.34
2022-09-28T07:31:38.100Z,97215.00
2022-09-28T07:34:24.019Z,97206.63
2022-09-28T07:37:13.347Z,97227.31
2022-09-28T07:40:06.828Z,97221.34
2022-09-28T07:42:38.320Z,97209.88
2022-09-28T07:45:14.907Z,97222.91
2022-09-28T07:48:02.754Z,97222.38
2022-09-28T07:50:59.942Z,97223.13
2022-09-28T07:53:41.790Z,97222.59
2022-09-28T07:56:20.479Z,97231.81
2022-09-28T07:58:56.474Z,97226.38
2022-09-28T08:01:42.378Z,97224.22
2022-09-28T08:04:12.158Z,97211.16
2022-09-28T08:06:40.949Z,97222.88
2022-09-28T08:09:09.814Z,97218.78
2022-09-28T08:11:55.169Z,97207.63
2022-09-28T08:14:43.702Z,97207.44
2022-09-28T08:17:16.390Z,97219.91
2022-09-28T08:20:08.403Z,97219.91
2022-09-28T08:22:35.009Z,97220.75
2022-09-28T08:25:01.627Z,97227.47
2022-09-28T08:27:29.176Z,97229.69
2022-09-28T08:29:55.773Z,97234.03
2022-09-28T08:32:46.679Z,97225.34
2022-09-28T08:35:31.916Z,97227.78
2022-09-28T08:38:11.242Z,97225.03
2022-09-28T08:41:04.484Z,97234.28
2022-09-28T08:44:05.593Z,97233.22
2022-09-28T08:47:03.570Z,97231.56
2022-09-28T08:49:50.884Z,97224.00
2022-09-28T08:52:55.416Z,97228.88
2022-09-28T08:55:43.012Z,97221.00
2022-09-28T08:58:15.625Z,97221.81
2022-09-28T09:00:48.504Z,97226.97
2022-09-28T09:03:21.239Z,97219.09
2022-09-28T09:06:20.614Z,97221.28
2022-09-28T09:09:21.765Z,97240.59
2022-09-28T09:12:08.290Z,97231.13
2022-09-28T09:14:54.919Z,97233.13
2022-09-28T09:17:45.789Z,97235.34
2022-09-28T09:20:47.791Z,97233.44
2022-09-28T09:23:49.827Z,97240.25
2022-09-28T09:26:24.025Z,97223.13
2022-09-28T09:29:07.737Z,97231.31
2022-09-28T09:32:11.276Z,97231.03
2022-09-28T09:34:49.151Z,97222.88
2022-09-28T09:37:38.541Z,97225.84
2022-09-28T09:40:58.137Z,97221.50
2022-09-28T09:44:02.175Z,97225.03
2022-09-28T09:47:04.511Z,97212.03
2022-09-28T09:50:08.412Z,97210.41
2022-09-28T09:53:21.854Z,97215.56
2022-09-28T09:55:58.592Z,97205.22
2022-09-28T09:58:58.447Z,97194.09
2022-09-28T10:01:39.040Z,97168.59
2022-09-28T10:04:43.068Z,97184.31
2022-09-28T10:07:33.892Z,97190.31
2022-09-28T10:10:01.658Z,97193.78
2022-09-28T10:12:54.906Z,97181.84
2022-09-28T10:15:29.798Z,97182.66
2022-09-28T10:18:16.655Z,97182.63
2022-09-28T10:20:44.952Z,97167.41
2022-09-28T10:23:27.177Z,97151.66
2022-09-28T10:25:57.865Z,97143.75
2022-09-28T10:28:39.065Z,97152.97
2022-09-28T10:31:37.157Z,97141.25
2022-09-28T10:34:08.855Z,97139.91
2022-09-28T10:36:52.288Z,97134.19
2022-09-28T10:39:36.410Z,97137.72
2022-09-28T10:42:07.458Z,97140.97
2022-09-28T10:44:49.649Z,97131.22
2022-09-28T10:47:29.196Z,97123.03
2022-09-28T10:49:56.210Z,97122.47
2022-09-28T10:52:42.597Z,97123.50
2022-09-28T10:55:21.144Z,97112.91
2022-09-28T10:57:48.246Z,97120.78
2022-09-28T11:00:34.297Z,97104.13
2022-09-28T11:03:25.759Z,97111.94
2022-09-28T11:06:08.175Z,97094.91
2022-09-28T11:08:45.525Z,97098.16
2022-09-28T11:11:20.052Z,97108.13
2022-09-28T11:14:01.097Z,97093.69
2022-09-28T11:16:33.826Z,97105.59
2022-09-28T11:19:29.525Z,97093.34
2022-09-28T11:21:56.274Z,97076.25
2022-09-28T11:24:31.435Z,97111.75
2022-09-28T11:27:02.198Z,97102.56
2022-09-28T11:29:42.435Z,97108.63
2022-09-28T11:32:23.368Z,97108.81
2022-09-28T11:35:20.678Z,97098.81
2022-09-28T11:38:38.592Z,97115.50
2022-09-28T11:41:23.423Z,97103.75
2022-09-28T11:44:07.043Z,97104.09
2022-09-28T11:46:45.046Z,97109.47
2022-09-28T11:49:46.536Z,97085.69
2022-09-28T11:52:22.130Z,97066.75
2022-09-28T11:55:29.006Z,97068.31
2022-09-28T11:58:12.049Z,97053.09
2022-09-28T12:00:46.616Z,97046.13
2022-09-28T12:03:36.612Z,97032.09
2022-09-28T12:06:07.884Z,97072.78
2022-09-28T12:08:37.436Z,97050.66
2022-09-28T12:11:13.193Z,97039.38
2022-09-28T12:14:01.840Z,97043.19
2022-09-28T12:17:01.040Z,97056.72
2022-09-28T12:19:38.190Z,97031.03
2022-09-28T12:22:18.663Z,97038.09
2022-09-28T12:24:54.363Z,97033.09
2022-09-28T12:27:26.855Z,97036.25
2022-09-28T12:30:12.241Z,97051.09
2022-09-28T12:32:50.877Z,97034.66
2022-09-28T12:35:50.864Z,97037.94
2022-09-28T12:38:20.447Z,97030.19
2022-09-28T12:41:06.799Z,97022.38
2022-09-28T12:44:09.014Z,97024.41
2022-09-28T12:47:06.069Z,97020.13
2022-09-28T12:50:37.064Z,97027.00
2022-09-28T12:52:53.385Z,97010.50
2022-09-28T12:55:52.248Z,97013.25
2022-09-28T12:58:26.196Z,96998.06
2022-09-28T13:01:13.629Z,96999.09
2022-09-28T13:03:46.236Z,97001.09
2022-09-28T13:06:26.081Z,96993.38
2022-09-28T13:09:02.127Z,96989.34
2022-09-28T13:11:47.450Z,96978.06
2022-09-28T13:14:45.017Z,96984.84
2022-09-28T13:17:41.074Z,96987.75
2022-09-28T13:20:17.788Z,96990.53
2022-09-28T13:23:11.672Z,96975.84
2022-09-28T13:25:40.252Z,96984.94
2022-09-28T13:28:07.300Z,96970.56
2022-09-28T13:30:36.691Z,96963.56
2022-09-28T13:33:06.021Z,96965.81
2022-09-28T13:35:33.371Z,96970.81
2022-09-28T13:38:15.275Z,96965.59
2022-09-28T13:41:11.571Z,96957.69
2022-09-28T13:44:01.373Z,96948.47
2022-09-28T13:46:37.179Z,96948.53
2022-09-28T13:49:11.520Z,96954.97
2022-09-28T13:51:47.423Z,96949.56
2022-09-28T13:54:41.344Z,96930.31
2022-09-28T13:57:46.217Z,96921.94
2022-09-28T14:00:22.244Z,96915.66
2022-09-28T14:02:58.774Z,96914.53
2022-09-28T14:05:34.593Z,96910.13
2022-09-28T14:08:40.327Z,96919.03
2022-09-28T14:11:42.486Z,96914.75
2022-09-28T14:14:13.721Z,96908.47
2022-09-28T14:16:41.958Z,96893.84
2022-09-28T14:19:10.980Z,96901.31
2022-09-28T14:22:15.302Z,96915.47
2022-09-28T14:24:51.130Z,96914.03
2022-09-28T14:27:40.121Z,96906.44
2022-09-28T14:30:25.656Z,96906.91
2022-09-28T14:32:58.080Z,96905.44
2022-09-28T14:35:33.469Z,96916.13
2022-09-28T14:38:33.681Z,96914.91
2022-09-28T14:41:10.775Z,96921.06
2022-09-28T14:43:57.979Z,96910.63
2022-09-28T14:46:25.518Z,96911.41
2022-09-28T14:49:19.730Z,96914.78
2022-09-28T14:51:56.201Z,96907.69
2022-09-28T14:55:05.469Z,96869.56
2022-09-28T14:57:40.527Z,96891.19
2022-09-28T15:00:20.969Z,96902.53
2022-09-28T15:03:01.375Z,96911.56
2022-09-28T15:05:32.827Z,96892.00
2022-09-28T15:07:59.844Z,96901.16
2022-09-28T15:10:40.385Z,96896.16
2022-09-28T15:13:26.954Z,96886.91
2022-09-28T15:16:17.688Z,96877.22
2022-09-28T15:19:03.316Z,96898.03
2022-09-28T15:21:38.982Z,96868.53
2022-09-28T15:24:26.275Z,96878.16
2022-09-28T15:26:58.032Z,96898.91
2022-09-28T15:29:36.690Z,96879.38
2022-09-28T15:32:32.398Z,96886.16
2022-09-28T15:35:11.880Z,96893.13
2022-09-28T15:37:40.647Z,96886.63
2022-09-28T15:40:13.616Z,96902.31
2022-09-28T15:42:40.681Z,96902.75
2022-09-28T15:45:36.625Z,96900.38
2022-09-28T15:48:20.153Z,96911.94
2022-09-28T15:51:17.512Z,96905.97
2022-09-28T15:54:19.489Z,96912.44
2022-09-28T15:56:57.848Z,96906.31
2022-09-28T15:59:30.820Z,96910.50
2022-09-28T16:02:18.041Z,96920.16
2022-09-28T16:04:55.295Z,96925.38
2022-09-28T16:07:56.326Z,96909.53
2022-09-28T16:10:34.180Z,96926.03
2022-09-28T16:13:15.789Z,96931.75
2022-09-28T16:15:42.712Z,96943.72
2022-09-28T16:18:20.155Z,96931.47
2022-09-28T16:20:49.903Z,96953.28
2022-09-28T16:23:16.508Z,96952.44
2022-09-28T16:25:52.040Z,96958.53
2022-09-28T16:28:34.200Z,96958.28
2022-09-28T16:31:05.423Z,96967.88
2022-09-28T16:33:51.426Z,96954.22
2022-09-28T17:11:21.461Z,96992.69
2022-09-28T17:13:50.215Z,96989.28
2022-09-28T17:16:28.220Z,96997.34
2022-09-28T17:19:26.765Z,96995.84
2022-09-28T17:21:53.478Z,97008.44
2022-09-28T17:24:20.407Z,96999.38
2022-09-28T17:26:50.160Z,97013.94
2022-09-28T17:29:16.805Z,97014.22
2022-09-28T17:31:44.779Z,97012.59
2022-09-28T17:34:12.852Z,97015.13
2022-09-28T17:36:41.222Z,97022.72
2022-09-28T17:39:12.493Z,97030.53
2022-09-28T17:41:39.755Z,97038.44
2022-09-28T17:44:06.561Z,97041.00
2022-09-28T17:46:34.886Z,97034.59
2022-09-28T17:49:04.246Z,97032.50
2022-09-28T17:51:33.612Z,97042.81
2022-09-28T17:54:01.037Z,97044.16
2022-09-28T17:56:32.241Z,97039.97
2022-09-28T17:59:01.406Z,97031.66
2022-09-28T18:01:33.748Z,97033.34
2022-09-28T18:04:04.958Z,97020.38
2022-09-28T18:06:34.714Z,97023.50
2022-09-28T18:09:03.007Z,97016.41
2022-09-28T18:11:30.042Z,97018.66
2022-09-28T18:13:56.516Z,97016.34
2022-09-28T18:16:23.243Z,97007.78
2022-09-28T18:18:49.799Z,97003.66
2022-09-28T18:21:16.354Z,97009.94
2022-09-28T18:23:42.915Z,97006.63
2022-09-28T18:26:14.645Z,97003.94
2022-09-28T18:28:41.496Z,97001.97
2022-09-28T18:31:09.452Z,96996.63
2022-09-28T18:33:37.547Z,97007.00
2022-09-28T18:36:05.091Z,97020.72
2022-09-28T18:38:31.970Z,97019.84
2022-09-28T18:41:06.586Z,97027.44
2022-09-28T18:43:35.738Z,97016.19
2022-09-28T18:46:09.995Z,97028.66
2022-09-28T18:48:37.384Z,97029.75
2022-09-28T18:51:07.809Z,97040.19
2022-09-28T18:53:34.735Z,97041.53
2022-09-28T18:56:07.798Z,97049.13
2022-09-28T18:58:36.092Z,97041.09
2022-09-28T19:01:32.647Z,97043.03
2022-09-28T19:04:00.826Z,97052.81
2022-09-28T19:06:27.866Z,97044.31
2022-09-28T19:08:55.642Z,97045.72
2022-09-28T19:11:22.635Z,97041.75
2022-09-28T19:13:49.141Z,97042.78
2022-09-28T19:16:21.684Z,97045.22
2022-09-28T19:18:48.462Z,97043.09
2022-09-28T19:21:15.558Z,97039.91
2022-09-28T19:23:48.099Z,97038.63
2022-09-28T19:26:18.546Z,97040.75
2022-09-28T19:28:45.026Z,97043.28
2022-09-28T19:31:11.939Z,97038.81
2022-09-28T19:33:39.256Z,97041.03
2022-09-28T19:36:08.046Z,97029.47
2022-09-28T19:38:36.927Z,97032.19
2022-09-28T19:41:09.470Z,97035.00
2022-09-28T19:43:36.198Z,97031.00
2022-09-28T19:46:04.613Z,97041.34
2022-09-28T19:48:32.722Z,97039.00
2022-09-28T19:51:04.222Z,97041.97
2022-09-28T19:53:33.310Z,97029.16
2022-09-28T19:56:04.906Z,97028.78
2022-09-28T19:58:35.007Z,97023.63
2022-09-28T20:01:06.198Z,97031.00
2022-09-28T20:03:33.693Z,97038.00
2022-09-28T20:06:01.570Z,97023.84
2022-09-28T20:08:30.003Z,97037.03
2022-09-28T20:10:59.498Z,97035.84
2022-09-28T20:13:34.758Z,97036.63
2022-09-28T20:16:12.206Z,97036.75
2022-09-28T20:18:43.374Z,97039.78
2022-09-28T20:21:15.937Z,97041.97
2022-09-28T20:23:44.962Z,97048.81
2022-09-28T20:26:12.175Z,97041.75
2022-09-28T20:28:38.902Z,97043.44
2022-09-28T20:31:07.110Z,97055.66
2022-09-28T20:33:33.913Z,97048.66
2022-09-28T20:36:07.634Z,97043.31
2022-09-28T20:38:34.423Z,97034.69
2022-09-28T20:41:01.643Z,97023.31
2022-09-28T20:43:31.203Z,97023.00
2022-09-28T20:45:59.115Z,97036.44
2022-09-28T20:48:26.408Z,97038.88
2022-09-28T20:51:04.666Z,97036.75
2022-09-28T20:53:32.090Z,97029.72
2022-09-28T20:56:03.453Z,97036.75
2022-09-28T20:58:30.084Z,97033.91
2022-09-28T21:01:27.005Z,97041.44
2022-09-28T21:03:55.751Z,97027.97
2022-09-28T21:06:24.527Z,97039.09
2022-09-28T21:08:51.075Z,97047.53
2022-09-28T21:11:20.627Z,97036.44
2022-09-28T21:13:47.280Z,97042.66
2022-09-28T21:16:16.248Z,97048.75
2022-09-28T21:18:42.838Z,97041.41
2022-09-28T21:21:11.994Z,97037.41
2022-09-28T21:23:38.911Z,97037.41
2022-09-28T21:26:10.693Z,97042.63
2022-09-28T21:28:40.372Z,97041.28
2022-09-28T21:31:09.435Z,97043.53
2022-09-28T21:33:38.661Z,97041.09
2022-09-28T21:36:07.022Z,97031.59
2022-09-28T21:38:33.449Z,97028.38
2022-09-28T21:41:00.148Z,97031.91
2022-09-28T21:43:28.230Z,97027.44
2022-09-28T21:45:55.628Z,97031.47
2022-09-28T21:48:23.522Z,97029.38
2022-09-28T21:51:00.687Z,97039.13
2022-09-28T21:53:32.132Z,97037.81
2022-09-28T21:55:59.995Z,97035.88
2022-09-28T21:58:28.531Z,97031.25
2022-09-28T22:01:07.724Z,97031.00
2022-09-28T22:03:35.806Z,97031.31
2022-09-28T22:06:03.641Z,97043.25
2022-09-28T22:08:30.146Z,97046.91
2022-09-28T22:11:01.757Z,97065.47
2022-09-28T22:13:33.010Z,97070.63
2022-09-28T22:15:59.705Z,97067.66
2022-09-28T22:18:27.475Z,97064.69
2022-09-28T22:21:06.349Z,97055.16
2022-09-28T22:23:33.758Z,97063.59
2022-09-28T22:26:06.954Z,97058.44
2022-09-28T22:28:34.096Z,97063.38
2022-09-28T22:31:00.609Z,97070.44
2022-09-28T22:33:27.293Z,97070.72
2022-09-28T22:35:54.887Z,97068.00
2022-09-28T22:38:23.445Z,97068.88
2022-09-28T22:40:54.650Z,97073.78
2022-09-28T22:43:24.320Z,97078.94
2022-09-28T22:46:00.252Z,97079.50
2022-09-28T22:48:26.759Z,97081.13
2022-09-28T22:50:53.232Z,97090.44
2022-09-28T22:53:19.706Z,97071.41
2022-09-28T22:55:46.269Z,97068.69
2022-09-28T22:58:13.412Z,97065.44
2022-09-28T23:00:39.901Z,97061.09
2022-09-28T23:03:06.484Z,97063.00
2022-09-28T23:05:33.057Z,97056.75
2022-09-28T23:07:59.523Z,97051.31
2022-09-28T23:10:25.990Z,97057.84
2022-09-28T23:12:55.669Z,97055.44
2022-09-28T23:15:22.859Z,97057.34
2022-09-28T23:17:53.008Z,97062.22
2022-09-28T23:20:20.906Z,97060.88
2022-09-28T23:22:48.406Z,97053.00
2022-09-28T23:25:15.799Z,97051.91
2022-09-28T23:27:49.507Z,97046.75
2022-09-28T23:30:17.779Z,97046.75
2022-09-28T23:32:44.573Z,97048.44
2022-09-28T23:35:11.078Z,97039.47
2022-09-28T23:37:37.987Z,97044.88
2022-09-28T23:40:06.005Z,97046.00
2022-09-28T23:42:33.251Z,97043.84
2022-09-28T23:44:59.811Z,97035.97
2022-09-28T23:47:26.314Z,97025.66
2022-09-28T23:49:52.796Z,97032.19
2022-09-28T23:52:19.318Z,97032.47
2022-09-28T23:54:45.803Z,97028.16
2022-09-28T23:57:12.285Z,97013.47
2022-09-28T23:59:38.857Z,97021.63
